createdAt,value
2023-04-22T00:00:28.766Z,16.75
2023-04-22T00:01:31.129Z,16.00
2023-04-22T00:02:32.638Z,14.00
2023-04-22T00:03:35.301Z,18.00
2023-04-22T00:04:37.464Z,15.00
2023-04-22T00:05:41.801Z,15.00
2023-04-22T00:06:43.212Z,14.50
2023-04-22T00:07:45.596Z,14.75
2023-04-22T00:08:46.990Z,17.75
2023-04-22T00:09:49.583Z,14.75
2023-04-22T00:10:51.044Z,19.00
2023-04-22T00:11:53.431Z,16.50
2023-04-22T00:12:54.901Z,18.25
2023-04-22T00:13:57.278Z,17.00
2023-04-22T00:14:58.791Z,16.00
2023-04-22T00:16:02.602Z,16.50
2023-04-22T00:17:04.019Z,17.75
2023-04-22T00:18:07.247Z,20.00
2023-04-22T00:19:08.737Z,16.25
2023-04-22T00:20:11.917Z,16.25
2023-04-22T00:21:13.336Z,15.25
2023-04-22T00:22:15.717Z,16.25
2023-04-22T00:23:17.194Z,15.00
2023-04-22T00:24:19.563Z,20.00
2023-04-22T00:25:20.985Z,13.75
2023-04-22T00:26:23.370Z,18.50
2023-04-22T00:27:24.795Z,17.75
2023-04-22T00:28:27.163Z,16.00
2023-04-22T00:29:28.614Z,18.25
2023-04-22T00:30:31.128Z,16.50
2023-04-22T00:31:33.994Z,18.50
2023-04-22T00:32:36.488Z,19.25
2023-04-22T00:33:38.089Z,17.50
2023-04-22T00:34:40.474Z,20.25
2023-04-22T00:35:41.929Z,19.75
2023-04-22T00:36:44.313Z,17.75
2023-04-22T00:37:45.698Z,19.00
2023-04-22T00:38:49.264Z,16.50
2023-04-22T00:39:50.756Z,15.00
2023-04-22T00:40:53.304Z,15.00
2023-04-22T00:41:54.774Z,18.00
2023-04-22T00:42:57.160Z,17.25
2023-04-22T00:43:58.593Z,16.25
2023-04-22T00:45:01.146Z,19.25
2023-04-22T00:46:02.680Z,15.25
2023-04-22T00:47:06.557Z,18.00
2023-04-22T00:48:08.072Z,18.00
2023-04-22T00:49:10.550Z,18.00
2023-04-22T00:50:12.091Z,20.50
2023-04-22T00:51:14.500Z,19.00
2023-04-22T00:52:15.903Z,17.00
2023-04-22T00:53:18.368Z,15.25
2023-04-22T00:54:19.829Z,16.75
2023-04-22T00:55:22.202Z,19.00
2023-04-22T00:56:23.786Z,18.00
2023-04-22T00:57:26.143Z,19.25
2023-04-22T00:58:27.893Z,21.00
2023-04-22T00:59:30.270Z,18.00
2023-04-22T01:00:31.725Z,18.00
2023-04-22T01:01:34.313Z,17.25
2023-04-22T01:02:37.656Z,15.50
2023-04-22T01:03:40.487Z,18.00
2023-04-22T01:04:42.017Z,15.00
2023-04-22T01:05:44.392Z,14.00
2023-04-22T01:06:46.322Z,17.75
2023-04-22T01:07:48.678Z,19.25
2023-04-22T01:08:50.168Z,17.75
2023-04-22T01:09:52.725Z,18.75
2023-04-22T01:10:54.117Z,19.00
2023-04-22T01:11:56.932Z,17.50
2023-04-22T01:12:58.370Z,18.00
2023-04-22T01:14:00.735Z,17.75
2023-04-22T01:15:04.463Z,16.25
2023-04-22T01:16:08.766Z,17.50
2023-04-22T01:17:11.127Z,17.75
2023-04-22T01:18:14.852Z,14.00
2023-04-22T01:19:16.248Z,18.00
2023-04-22T01:20:19.426Z,14.75
2023-04-22T01:21:20.829Z,15.00
2023-04-22T01:22:23.306Z,15.50
2023-04-22T01:23:26.076Z,17.25
2023-04-22T01:24:28.472Z,18.75
2023-04-22T01:25:29.890Z,19.50
2023-04-22T01:26:32.256Z,18.00
2023-04-22T01:27:33.781Z,17.25
2023-04-22T01:28:36.163Z,16.75
2023-04-22T01:29:38.069Z,15.00
2023-04-22T01:30:40.800Z,18.25
2023-04-22T01:31:42.206Z,18.00
2023-04-22T01:32:44.717Z,21.25
2023-04-22T01:33:46.566Z,20.00
2023-04-22T01:34:48.944Z,22.00
2023-04-22T01:35:50.352Z,22.25
2023-04-22T01:36:52.724Z,22.00
2023-04-22T01:37:54.162Z,17.50
2023-04-22T01:38:58.064Z,21.00
2023-04-22T01:39:59.465Z,18.00
2023-04-22T01:41:01.865Z,19.50
2023-04-22T01:42:03.351Z,18.50
2023-04-22T01:43:05.829Z,18.50
2023-04-22T01:44:07.257Z,21.00
2023-04-22T01:45:10.098Z,18.50
2023-04-22T01:46:11.567Z,19.25
2023-04-22T01:47:14.037Z,19.00
2023-04-22T01:48:15.501Z,15.25
2023-04-22T01:49:17.968Z,16.75
2023-04-22T01:50:19.406Z,18.75
2023-04-22T01:51:21.780Z,15.00
2023-04-22T01:52:23.156Z,16.75
2023-04-22T01:53:25.608Z,18.50
2023-04-22T01:54:28.347Z,19.25
2023-04-22T01:55:30.839Z,18.50
2023-04-22T01:56:32.239Z,22.75
2023-04-22T01:57:34.616Z,21.00
2023-04-22T01:58:36.112Z,21.50
2023-04-22T01:59:38.915Z,22.50
2023-04-22T02:00:40.545Z,17.00
2023-04-22T02:01:42.968Z,20.25
2023-04-22T02:02:44.481Z,19.50
2023-04-22T02:03:47.026Z,18.00
2023-04-22T02:04:48.553Z,15.75
2023-04-22T02:05:50.958Z,16.75
2023-04-22T02:06:52.362Z,19.25
2023-04-22T02:07:54.839Z,18.50
2023-04-22T02:08:56.327Z,17.25
2023-04-22T02:10:01.416Z,14.50
2023-04-22T02:11:02.815Z,18.50
2023-04-22T02:12:05.500Z,17.75
2023-04-22T02:13:06.952Z,18.75
2023-04-22T02:14:09.388Z,18.25
2023-04-22T02:15:11.105Z,17.25
2023-04-22T02:16:13.517Z,16.75
2023-04-22T02:17:17.780Z,19.75
2023-04-22T02:18:20.177Z,18.00
2023-04-22T02:19:21.984Z,20.75
2023-04-22T02:20:24.477Z,18.00
2023-04-22T02:21:26.035Z,15.25
2023-04-22T02:22:29.358Z,16.75
2023-04-22T02:23:31.129Z,18.00
2023-04-22T02:24:33.535Z,13.25
2023-04-22T02:25:36.773Z,12.25
2023-04-22T02:26:39.168Z,18.25
2023-04-22T02:27:40.623Z,16.75
2023-04-22T02:28:42.993Z,15.50
2023-04-22T02:29:44.424Z,15.25
2023-04-22T02:30:46.798Z,17.50
2023-04-22T02:31:48.306Z,18.25
2023-04-22T02:32:50.792Z,15.75
2023-04-22T02:33:52.229Z,18.00
2023-04-22T02:34:54.627Z,16.75
2023-04-22T02:35:56.044Z,17.00
2023-04-22T02:36:58.475Z,18.50
2023-04-22T02:37:59.905Z,15.00
2023-04-22T02:39:03.420Z,18.00
2023-04-22T02:40:05.319Z,16.50
2023-04-22T02:41:09.034Z,15.00
2023-04-22T02:42:10.556Z,15.00
2023-04-22T02:43:12.951Z,14.50
2023-04-22T02:44:14.374Z,13.75
2023-04-22T02:45:16.917Z,13.25
2023-04-22T02:46:18.329Z,14.00
2023-04-22T02:47:20.785Z,15.00
2023-04-22T02:48:22.313Z,14.50
2023-04-22T02:49:24.692Z,16.00
2023-04-22T02:50:26.181Z,15.00
2023-04-22T02:51:28.648Z,13.75
2023-04-22T02:52:30.067Z,13.50
2023-04-22T02:53:32.446Z,15.50
2023-04-22T02:54:33.835Z,14.00
2023-04-22T02:55:36.780Z,12.50
2023-04-22T02:56:39.534Z,12.25
2023-04-22T02:57:41.910Z,14.25
2023-04-22T02:58:43.305Z,13.75
2023-04-22T02:59:46.534Z,13.25
2023-04-22T03:00:48.133Z,13.50
2023-04-22T03:01:50.565Z,14.25
2023-04-22T03:02:52.119Z,14.50
2023-04-22T03:03:54.990Z,14.25
2023-04-22T03:04:57.114Z,18.25
2023-04-22T03:05:59.574Z,15.50
2023-04-22T03:07:00.984Z,12.75
2023-04-22T03:08:03.352Z,14.50
2023-04-22T03:09:04.747Z,14.25
2023-04-22T03:10:07.934Z,14.00
2023-04-22T03:11:09.431Z,12.50
2023-04-22T03:12:13.160Z,15.25
2023-04-22T03:13:14.580Z,13.50
2023-04-22T03:14:16.947Z,12.00
2023-04-22T03:15:21.205Z,13.50
2023-04-22T03:16:24.118Z,13.75
2023-04-22T03:17:26.016Z,12.50
2023-04-22T03:18:28.537Z,13.75
2023-04-22T03:19:29.915Z,14.75
2023-04-22T03:20:32.278Z,12.50
2023-04-22T03:21:33.722Z,12.00
2023-04-22T03:22:36.079Z,14.00
2023-04-22T03:23:37.461Z,12.00
2023-04-22T03:24:40.232Z,15.00
2023-04-22T03:25:41.641Z,14.75
2023-04-22T03:26:44.092Z,15.75
2023-04-22T03:27:46.854Z,16.00
2023-04-22T03:28:49.223Z,14.25
2023-04-22T03:29:50.695Z,15.00
2023-04-22T03:30:53.073Z,16.25
2023-04-22T03:31:54.583Z,12.50
2023-04-22T03:32:57.058Z,12.75
2023-04-22T03:33:58.494Z,13.00
2023-04-22T03:35:01.112Z,12.00
2023-04-22T03:36:02.585Z,12.25
2023-04-22T03:37:05.108Z,11.25
2023-04-22T03:38:06.484Z,12.00
2023-04-22T03:39:08.870Z,15.00
2023-04-22T03:40:11.648Z,13.50
2023-04-22T03:41:14.841Z,14.50
2023-04-22T03:42:16.312Z,14.75
2023-04-22T03:43:20.026Z,12.00
2023-04-22T03:44:21.414Z,12.00
2023-04-22T03:45:23.822Z,12.00
2023-04-22T03:46:25.398Z,11.00
2023-04-22T03:47:27.998Z,13.00
2023-04-22T03:48:33.302Z,11.25
2023-04-22T03:49:35.685Z,12.25
2023-04-22T03:50:37.108Z,14.50
2023-04-22T03:51:39.457Z,12.50
2023-04-22T03:52:41.224Z,12.25
2023-04-22T03:53:43.595Z,13.00
2023-04-22T03:54:45.015Z,12.25
2023-04-22T03:55:47.474Z,12.00
2023-04-22T03:56:48.855Z,12.00
2023-04-22T03:57:51.316Z,12.00
2023-04-22T03:58:54.047Z,12.00
2023-04-22T03:59:56.428Z,13.00
2023-04-22T04:00:57.821Z,13.00
2023-04-22T04:02:00.222Z,11.50
2023-04-22T04:03:01.938Z,14.75
2023-04-22T04:04:04.720Z,12.25
2023-04-22T04:05:07.366Z,12.50
2023-04-22T04:06:09.808Z,12.75
2023-04-22T04:07:11.216Z,12.50
2023-04-22T04:08:13.678Z,11.75
2023-04-22T04:09:15.131Z,11.25
2023-04-22T04:10:17.521Z,16.00
2023-04-22T04:11:18.908Z,11.50
2023-04-22T04:12:21.270Z,11.50
2023-04-22T04:13:22.710Z,13.25
2023-04-22T04:14:26.412Z,10.75
2023-04-22T04:15:27.802Z,14.75
2023-04-22T04:16:30.351Z,13.50
2023-04-22T04:17:31.857Z,11.50
2023-04-22T04:18:34.256Z,12.50
2023-04-22T04:19:35.958Z,12.00
2023-04-22T04:20:38.351Z,10.75
2023-04-22T04:21:39.739Z,12.00
2023-04-22T04:22:42.769Z,10.75
2023-04-22T04:23:44.373Z,10.75
2023-04-22T04:24:47.221Z,10.25
2023-04-22T04:25:48.616Z,13.00
2023-04-22T04:26:51.106Z,12.00
2023-04-22T04:27:52.522Z,11.50
2023-04-22T04:28:55.490Z,12.00
2023-04-22T04:29:58.218Z,8.50
2023-04-22T04:31:00.715Z,9.00
2023-04-22T04:32:02.129Z,11.00
2023-04-22T04:33:06.973Z,11.75
2023-04-22T04:34:08.744Z,11.75
2023-04-22T04:35:12.900Z,11.00
2023-04-22T04:36:14.284Z,11.00
2023-04-22T04:37:17.523Z,9.50
2023-04-22T04:38:19.558Z,10.75
2023-04-22T04:39:22.053Z,10.75
2023-04-22T04:40:23.525Z,10.75
2023-04-22T04:41:26.983Z,8.25
2023-04-22T04:42:30.336Z,11.00
2023-04-22T04:43:32.701Z,12.00
2023-04-22T04:44:34.348Z,9.00
2023-04-22T04:45:38.077Z,10.25
2023-04-22T04:46:39.504Z,10.75
2023-04-22T04:47:41.992Z,10.75
2023-04-22T04:48:45.918Z,11.50
2023-04-22T04:49:48.331Z,12.00
2023-04-22T04:50:50.256Z,10.00
2023-04-22T04:51:52.641Z,11.25
2023-04-22T04:52:54.052Z,12.00
2023-04-22T04:53:56.430Z,12.00
2023-04-22T04:54:57.863Z,13.00
2023-04-22T04:56:00.245Z,10.25
2023-04-22T04:57:01.769Z,11.00
2023-04-22T04:58:04.128Z,9.00
2023-04-22T04:59:05.537Z,12.00
2023-04-22T05:00:09.283Z,9.00
2023-04-22T05:01:12.035Z,11.50
2023-04-22T05:02:14.542Z,9.00
2023-04-22T05:03:16.248Z,12.00
2023-04-22T05:04:18.846Z,10.00
2023-04-22T05:05:20.759Z,10.75
2023-04-22T05:06:23.116Z,9.00
2023-04-22T05:07:24.519Z,11.25
2023-04-22T05:08:26.939Z,10.75
2023-04-22T05:09:28.326Z,12.50
2023-04-22T05:10:30.949Z,12.00
2023-04-22T05:11:32.492Z,10.00
2023-04-22T05:12:34.856Z,10.50
2023-04-22T05:13:36.252Z,11.50
2023-04-22T05:14:38.604Z,12.00
2023-04-22T05:15:40.081Z,12.25
2023-04-22T05:16:43.867Z,12.00
2023-04-22T05:17:45.376Z,11.50
2023-04-22T05:18:47.802Z,11.75
2023-04-22T05:19:49.212Z,12.00
2023-04-22T05:20:51.802Z,11.25
2023-04-22T05:21:53.175Z,12.00
2023-04-22T05:22:55.520Z,10.00
2023-04-22T05:23:56.920Z,13.00
2023-04-22T05:24:59.295Z,12.00
2023-04-22T05:26:00.878Z,12.00
2023-04-22T05:27:03.508Z,13.00
2023-04-22T05:28:04.896Z,11.25
2023-04-22T05:29:07.980Z,12.00
2023-04-22T05:30:09.916Z,10.75
2023-04-22T05:31:13.148Z,13.50
2023-04-22T05:32:16.107Z,12.00
2023-04-22T05:33:18.641Z,12.00
2023-04-22T05:34:20.104Z,13.00
2023-04-22T05:35:22.462Z,12.00
2023-04-22T05:36:24.504Z,12.00
2023-04-22T05:37:26.920Z,13.00
2023-04-22T05:38:28.315Z,11.25
2023-04-22T05:39:30.696Z,11.50
2023-04-22T05:40:32.115Z,14.00
2023-04-22T05:41:35.158Z,13.00
2023-04-22T05:42:36.567Z,12.75
2023-04-22T05:43:38.985Z,12.00
2023-04-22T05:44:40.391Z,12.75
2023-04-22T05:45:42.854Z,12.00
2023-04-22T05:46:44.743Z,13.00
2023-04-22T05:47:48.533Z,12.00
2023-04-22T05:48:50.099Z,10.25
2023-04-22T05:49:52.608Z,14.00
2023-04-22T05:50:54.306Z,13.00
2023-04-22T05:51:56.962Z,13.00
2023-04-22T05:52:58.376Z,11.25
2023-04-22T05:54:00.781Z,12.25
2023-04-22T05:55:03.139Z,11.50
2023-04-22T05:56:04.737Z,13.00
2023-04-22T05:57:07.273Z,11.75
2023-04-22T05:58:08.678Z,12.00
2023-04-22T05:59:11.084Z,9.25
2023-04-22T06:00:13.090Z,12.00
2023-04-22T06:01:15.454Z,10.75
2023-04-22T06:02:17.013Z,10.75
2023-04-22T06:03:21.124Z,12.75
2023-04-22T06:04:22.929Z,10.75
2023-04-22T06:05:25.477Z,13.00
2023-04-22T06:06:27.460Z,11.50
2023-04-22T06:07:30.194Z,11.25
2023-04-22T06:08:31.712Z,13.00
2023-04-22T06:09:34.080Z,15.25
2023-04-22T06:10:35.508Z,12.00
2023-04-22T06:11:37.877Z,11.75
2023-04-22T06:12:41.031Z,11.75
2023-04-22T06:13:43.395Z,13.00
2023-04-22T06:14:44.782Z,10.00
2023-04-22T06:15:47.197Z,9.75
2023-04-22T06:16:50.348Z,9.00
2023-04-22T06:17:52.964Z,10.75
2023-04-22T06:18:55.741Z,12.00
2023-04-22T06:19:58.105Z,10.75
2023-04-22T06:20:59.494Z,11.00
2023-04-22T06:22:01.915Z,10.75
2023-04-22T06:23:05.524Z,10.25
2023-04-22T06:24:09.035Z,9.00
2023-04-22T06:25:10.505Z,11.75
2023-04-22T06:26:12.912Z,8.00
2023-04-22T06:27:14.292Z,9.00
2023-04-22T06:28:16.857Z,9.25
2023-04-22T06:29:18.236Z,9.00
2023-04-22T06:30:21.018Z,9.75
2023-04-22T06:31:22.454Z,9.25
2023-04-22T06:32:24.857Z,9.00
2023-04-22T06:33:26.263Z,9.00
2023-04-22T06:34:29.993Z,9.00
2023-04-22T06:35:31.403Z,9.00
2023-04-22T06:36:37.275Z,9.75
2023-04-22T06:37:38.702Z,8.00
2023-04-22T06:38:41.406Z,9.00
2023-04-22T06:39:43.112Z,9.00
2023-04-22T06:40:45.642Z,9.50
2023-04-22T06:41:47.096Z,9.25
2023-04-22T06:42:49.473Z,7.75
2023-04-22T06:43:50.947Z,9.00
2023-04-22T06:44:53.323Z,7.75
2023-04-22T06:45:54.709Z,8.25
2023-04-22T06:46:58.308Z,8.25
2023-04-22T06:47:59.890Z,9.00
2023-04-22T06:49:02.402Z,7.75
2023-04-22T06:50:06.243Z,8.00
2023-04-22T06:51:08.682Z,8.50
2023-04-22T06:52:10.084Z,8.25
2023-04-22T06:53:12.441Z,8.00
2023-04-22T06:54:13.983Z,8.25
2023-04-22T06:55:16.415Z,7.50
2023-04-22T06:56:17.913Z,7.00
2023-04-22T06:57:20.296Z,7.75
2023-04-22T06:58:21.760Z,9.00
2023-04-22T06:59:24.219Z,7.25
2023-04-22T07:00:25.653Z,7.00
2023-04-22T07:01:28.224Z,9.00
2023-04-22T07:02:29.876Z,7.25
2023-04-22T07:03:32.527Z,7.25
2023-04-22T07:04:34.831Z,7.00
2023-04-22T07:05:39.747Z,6.00
2023-04-22T07:06:41.501Z,8.75
2023-04-22T07:07:43.874Z,7.00
2023-04-22T07:08:45.402Z,6.75
2023-04-22T07:09:48.114Z,8.75
2023-04-22T07:10:49.545Z,7.00
2023-04-22T07:11:51.905Z,6.50
2023-04-22T07:12:53.345Z,7.00
2023-04-22T07:13:55.754Z,9.00
2023-04-22T07:14:57.629Z,6.25
2023-04-22T07:16:00.031Z,7.00
2023-04-22T07:17:01.450Z,7.00
2023-04-22T07:18:03.890Z,7.00
2023-04-22T07:19:06.802Z,7.00
2023-04-22T07:20:08.768Z,8.00
2023-04-22T07:21:12.673Z,9.00
2023-04-22T07:22:14.155Z,7.00
2023-04-22T07:23:16.515Z,8.50
2023-04-22T07:24:21.128Z,9.00
2023-04-22T07:25:23.567Z,6.50
2023-04-22T07:26:25.022Z,9.00
2023-04-22T07:27:27.392Z,7.00
2023-04-22T07:28:28.815Z,8.25
2023-04-22T07:29:31.186Z,8.00
2023-04-22T07:30:32.663Z,8.25
2023-04-22T07:31:36.031Z,7.00
2023-04-22T07:32:37.474Z,8.25
2023-04-22T07:33:40.457Z,6.00
2023-04-22T07:34:41.861Z,6.25
2023-04-22T07:35:44.318Z,8.00
2023-04-22T07:36:47.085Z,9.00
2023-04-22T07:37:49.428Z,7.00
2023-04-22T07:38:50.813Z,6.00
2023-04-22T07:39:53.308Z,6.75
2023-04-22T07:40:54.973Z,7.00
2023-04-22T07:41:57.720Z,8.00
2023-04-22T07:42:59.390Z,8.50
2023-04-22T07:44:01.802Z,8.00
2023-04-22T07:45:04.558Z,6.25
2023-04-22T07:46:06.333Z,9.50
2023-04-22T07:47:08.951Z,6.00
2023-04-22T07:48:10.350Z,7.00
2023-04-22T07:49:13.973Z,6.75
2023-04-22T07:50:16.457Z,8.25
2023-04-22T07:51:17.927Z,6.50
2023-04-22T07:52:21.688Z,7.25
2023-04-22T07:53:23.164Z,6.00
2023-04-22T07:54:25.561Z,6.50
2023-04-22T07:55:27.034Z,6.75
2023-04-22T07:56:29.573Z,7.00
2023-04-22T07:57:32.729Z,8.00
2023-04-22T07:58:35.115Z,6.25
2023-04-22T07:59:37.248Z,6.00
2023-04-22T08:00:39.772Z,7.00
2023-04-22T08:01:44.228Z,6.50
2023-04-22T08:02:47.468Z,6.50
2023-04-22T08:03:49.095Z,7.00
2023-04-22T08:04:51.965Z,7.25
2023-04-22T08:05:53.526Z,6.50
2023-04-22T08:06:56.558Z,7.00
2023-04-22T08:07:59.304Z,7.50
2023-04-22T08:09:01.687Z,7.25
2023-04-22T08:10:04.339Z,6.75
2023-04-22T08:11:05.845Z,7.00
2023-04-22T08:12:08.304Z,6.25
2023-04-22T08:13:09.696Z,7.00
2023-04-22T08:14:12.071Z,7.25
2023-04-22T08:15:13.509Z,7.25
2023-04-22T08:16:15.994Z,7.00
2023-04-22T08:17:21.662Z,7.00
2023-04-22T08:18:24.120Z,8.00
2023-04-22T08:19:25.713Z,8.25
2023-04-22T08:20:28.190Z,7.00
2023-04-22T08:21:29.608Z,7.00
2023-04-22T08:22:32.112Z,6.00
2023-04-22T08:23:34.862Z,7.00
2023-04-22T08:24:37.248Z,7.00
2023-04-22T08:25:38.661Z,7.00
2023-04-22T08:26:41.050Z,6.00
2023-04-22T08:27:42.565Z,7.75
2023-04-22T08:28:44.936Z,7.00
2023-04-22T08:29:46.385Z,8.00
2023-04-22T08:30:48.758Z,7.25
2023-04-22T08:31:50.162Z,7.00
2023-04-22T08:32:53.436Z,6.75
2023-04-22T08:33:55.004Z,9.00
2023-04-22T08:35:03.933Z,8.25
2023-04-22T08:36:06.582Z,7.25
2023-04-22T08:37:09.033Z,8.00
2023-04-22T08:38:10.489Z,8.75
2023-04-22T08:39:14.414Z,7.00
2023-04-22T08:40:15.832Z,8.00
2023-04-22T08:41:19.152Z,7.75
2023-04-22T08:42:21.158Z,7.00
2023-04-22T08:43:24.307Z,7.00
2023-04-22T08:44:25.836Z,8.00
2023-04-22T08:45:28.291Z,8.00
2023-04-22T08:46:30.697Z,5.00
2023-04-22T08:47:32.904Z,8.50
2023-04-22T08:48:35.730Z,8.00
2023-04-22T08:49:37.315Z,7.00
2023-04-22T08:50:40.605Z,8.00
2023-04-22T08:51:42.513Z,8.00
2023-04-22T08:52:45.321Z,7.00
2023-04-22T08:53:47.061Z,7.75
2023-04-22T08:54:51.184Z,7.50
2023-04-22T08:55:52.622Z,5.00
2023-04-22T08:56:55.337Z,7.00
2023-04-22T08:57:56.937Z,7.25
2023-04-22T08:58:59.533Z,5.25
2023-04-22T09:00:10.611Z,8.00
2023-04-22T09:01:13.477Z,7.75
2023-04-22T09:02:17.943Z,8.75
2023-04-22T09:03:20.481Z,7.25
2023-04-22T09:04:22.194Z,8.00
2023-04-22T09:05:26.678Z,7.50
2023-04-22T09:06:29.436Z,8.25
2023-04-22T09:07:32.302Z,9.00
2023-04-22T09:08:33.996Z,7.50
2023-04-22T09:09:36.645Z,6.50
2023-04-22T09:10:39.616Z,7.75
2023-04-22T09:11:42.517Z,7.25
2023-04-22T09:12:44.315Z,5.50
2023-04-22T09:13:47.037Z,6.75
2023-04-22T09:14:48.823Z,6.75
2023-04-22T09:15:51.194Z,8.00
2023-04-22T09:16:52.627Z,8.50
2023-04-22T09:17:55.147Z,8.00
2023-04-22T09:18:56.841Z,8.00
2023-04-22T09:20:01.149Z,7.50
2023-04-22T09:21:02.526Z,7.25
2023-04-22T09:22:04.977Z,6.00
2023-04-22T09:23:06.396Z,7.00
2023-04-22T09:24:08.895Z,7.00
2023-04-22T09:25:17.180Z,7.00
2023-04-22T09:26:22.276Z,7.75
2023-04-22T09:27:24.080Z,8.50
2023-04-22T09:28:26.514Z,7.00
2023-04-22T09:29:29.716Z,6.00
2023-04-22T09:30:33.055Z,5.50
2023-04-22T09:31:34.485Z,7.50
2023-04-22T09:32:37.041Z,6.25
2023-04-22T09:33:38.727Z,9.00
2023-04-22T09:34:50.840Z,7.00
2023-04-22T09:35:53.282Z,6.00
2023-04-22T09:36:55.670Z,7.75
2023-04-22T09:37:57.170Z,7.75
2023-04-22T09:39:00.478Z,7.50
2023-04-22T09:40:01.883Z,6.25
2023-04-22T09:41:06.102Z,5.25
2023-04-22T09:42:09.451Z,6.50
2023-04-22T09:43:12.220Z,7.00
2023-04-22T09:44:14.741Z,7.75
2023-04-22T09:45:25.737Z,7.00
2023-04-22T09:46:29.248Z,7.50
2023-04-22T09:47:35.322Z,6.00
2023-04-22T09:48:43.268Z,7.50
2023-04-22T09:49:46.020Z,6.00
2023-04-22T09:50:49.028Z,7.50
2023-04-22T09:51:50.797Z,8.00
2023-04-22T09:52:57.696Z,6.25
2023-04-22T09:54:00.134Z,8.00
2023-04-22T09:55:02.859Z,6.25
2023-04-22T09:56:04.475Z,6.00
2023-04-22T09:57:12.273Z,6.00
2023-04-22T09:58:15.450Z,6.00
2023-04-22T09:59:22.058Z,5.75
2023-04-22T10:00:23.789Z,6.00
2023-04-22T10:01:36.054Z,5.50
2023-04-22T10:02:37.872Z,6.00
2023-04-22T10:03:40.466Z,5.75
2023-04-22T10:04:42.753Z,5.00
2023-04-22T10:05:46.032Z,6.00
2023-04-22T10:06:47.510Z,6.00
2023-04-22T10:07:50.396Z,5.75
2023-04-22T10:08:52.737Z,5.00
2023-04-22T10:09:56.313Z,6.50
2023-04-22T10:10:58.728Z,8.00
2023-04-22T10:12:00.466Z,6.00
2023-04-22T10:13:05.115Z,5.00
2023-04-22T10:14:10.565Z,5.75
2023-04-22T10:15:12.932Z,5.25
2023-04-22T10:16:14.503Z,5.00
2023-04-22T10:17:20.306Z,8.00
2023-04-22T10:18:23.068Z,5.75
2023-04-22T10:19:26.124Z,6.75
2023-04-22T10:20:28.256Z,6.00
2023-04-22T10:21:31.227Z,6.75
2023-04-22T10:22:36.084Z,7.75
2023-04-22T10:23:37.570Z,7.25
2023-04-22T10:24:42.290Z,7.50
2023-04-22T10:25:44.408Z,6.50
2023-04-22T10:26:50.298Z,8.50
2023-04-22T10:27:56.406Z,7.75
2023-04-22T10:28:58.621Z,6.50
2023-04-22T10:30:02.815Z,6.00
2023-04-22T10:31:06.409Z,7.75
2023-04-22T10:32:24.057Z,5.00
2023-04-22T10:33:40.307Z,6.25
2023-04-22T10:34:44.591Z,6.50
2023-04-22T10:36:01.320Z,6.00
2023-04-22T10:37:07.004Z,6.25
2023-04-22T10:38:08.717Z,7.75
2023-04-22T10:39:18.252Z,5.75
2023-04-22T10:40:23.027Z,5.00
2023-04-22T10:41:24.608Z,6.75
2023-04-22T10:42:27.402Z,7.00
2023-04-22T10:43:40.658Z,5.75
2023-04-22T10:44:47.247Z,7.00
2023-04-22T10:45:50.674Z,5.75
2023-04-22T10:46:56.514Z,5.00
2023-04-22T10:48:00.656Z,5.00
2023-04-22T10:49:06.742Z,5.75
2023-04-22T10:50:13.256Z,5.00
2023-04-22T10:51:33.142Z,6.00
2023-04-22T10:52:35.652Z,5.75
2023-04-22T10:53:37.265Z,5.00
2023-04-22T10:54:59.695Z,7.00
2023-04-22T10:56:04.303Z,6.00
2023-04-22T10:57:06.245Z,6.75
2023-04-22T10:58:14.384Z,6.00
2023-04-22T10:59:16.593Z,6.00
2023-04-22T11:00:25.892Z,6.00
2023-04-22T11:01:30.054Z,6.75
2023-04-22T11:02:34.084Z,6.00
2023-04-22T11:03:36.949Z,5.00
2023-04-22T11:04:39.434Z,5.75
2023-04-22T11:05:42.055Z,6.00
2023-04-22T11:06:45.878Z,6.25
2023-04-22T11:07:47.810Z,7.25
2023-04-22T11:08:50.590Z,6.50
2023-04-22T11:09:53.038Z,5.75
2023-04-22T11:10:55.880Z,5.50
2023-04-22T11:12:11.935Z,6.25
2023-04-22T11:13:15.296Z,6.00
2023-04-22T11:14:17.844Z,6.00
2023-04-22T11:15:22.757Z,8.50
2023-04-22T11:16:25.530Z,7.25
2023-04-22T11:17:28.405Z,6.25
2023-04-22T11:18:33.107Z,8.00
2023-04-22T11:19:34.544Z,7.00
2023-04-22T11:20:37.075Z,6.00
2023-04-22T11:21:39.278Z,6.00
2023-04-22T11:22:42.450Z,6.00
2023-04-22T11:23:50.629Z,5.75
2023-04-22T11:24:55.783Z,6.00
2023-04-22T11:25:59.144Z,7.00
2023-04-22T11:27:01.615Z,6.25
2023-04-22T11:28:04.534Z,6.75
2023-04-22T11:29:06.430Z,5.00
2023-04-22T11:30:09.801Z,6.00
2023-04-22T11:31:16.521Z,6.00
2023-04-22T11:32:18.006Z,6.00
2023-04-22T11:33:21.775Z,5.75
2023-04-22T11:34:23.224Z,6.00
2023-04-22T11:35:27.119Z,7.00
2023-04-22T11:36:29.047Z,5.00
2023-04-22T11:37:32.149Z,6.25
2023-04-22T11:38:36.003Z,5.50
2023-04-22T11:39:44.373Z,5.50
2023-04-22T11:40:59.001Z,6.00
2023-04-22T11:42:00.815Z,6.25
2023-04-22T11:43:04.192Z,6.25
2023-04-22T11:44:06.181Z,7.00
2023-04-22T11:45:09.301Z,5.25
2023-04-22T11:46:10.736Z,5.50
2023-04-22T11:47:13.183Z,6.50
2023-04-22T11:48:15.742Z,7.00
2023-04-22T11:49:19.542Z,7.25
2023-04-22T11:50:22.893Z,7.00
2023-04-22T11:51:24.285Z,7.00
2023-04-22T11:52:26.709Z,5.00
2023-04-22T11:53:29.284Z,6.00
2023-04-22T11:54:31.429Z,6.25
2023-04-22T11:55:34.618Z,6.25
2023-04-22T11:56:37.089Z,5.50
2023-04-22T11:57:39.509Z,6.00
2023-04-22T11:58:42.373Z,6.00
2023-04-22T11:59:56.377Z,5.50
2023-04-22T12:00:58.986Z,5.00
2023-04-22T12:02:00.485Z,6.00
2023-04-22T12:03:04.189Z,7.00
2023-04-22T12:04:08.280Z,7.75
2023-04-22T12:05:12.358Z,6.75
2023-04-22T12:06:14.733Z,7.00
2023-04-22T12:07:16.162Z,5.25
2023-04-22T12:08:18.843Z,7.25
2023-04-22T12:09:23.850Z,7.00
2023-04-22T12:10:26.236Z,6.75
2023-04-22T12:11:28.759Z,6.00
2023-04-22T12:12:30.233Z,7.00
2023-04-22T12:13:34.376Z,7.75
2023-04-22T12:14:35.815Z,6.75
2023-04-22T12:15:38.832Z,6.25
2023-04-22T12:16:40.315Z,7.25
2023-04-22T12:17:42.857Z,6.50
2023-04-22T12:18:49.242Z,7.75
2023-04-22T12:19:53.593Z,6.00
2023-04-22T12:20:59.760Z,6.75
2023-04-22T12:22:01.201Z,6.00
2023-04-22T12:23:04.035Z,7.50
2023-04-22T12:24:10.361Z,6.25
2023-04-22T12:25:11.813Z,5.50
2023-04-22T12:26:14.284Z,8.00
2023-04-22T12:27:15.750Z,7.00
2023-04-22T12:28:18.149Z,7.00
2023-04-22T12:29:26.186Z,6.25
2023-04-22T12:30:28.617Z,6.75
2023-04-22T12:31:31.083Z,5.00
2023-04-22T12:32:32.691Z,6.25
2023-04-22T12:33:35.118Z,5.50
2023-04-22T12:34:36.560Z,7.50
2023-04-22T12:35:39.289Z,6.00
2023-04-22T12:36:42.028Z,7.00
2023-04-22T12:37:44.394Z,7.00
2023-04-22T12:38:46.062Z,6.75
2023-04-22T12:39:48.460Z,6.25
2023-04-22T12:40:51.044Z,7.25
2023-04-22T12:41:53.359Z,7.00
2023-04-22T12:42:55.923Z,7.00
2023-04-22T12:43:57.321Z,6.50
2023-04-22T12:44:59.809Z,6.00
2023-04-22T12:46:01.269Z,6.00
2023-04-22T12:47:03.658Z,7.00
2023-04-22T12:48:06.124Z,7.00
2023-04-22T12:49:07.705Z,6.50
2023-04-22T12:50:10.259Z,7.75
2023-04-22T12:51:11.687Z,6.00
2023-04-22T12:52:16.747Z,5.75
2023-04-22T12:53:19.137Z,8.00
2023-04-22T12:54:20.815Z,7.00
2023-04-22T12:55:23.199Z,7.00
2023-04-22T12:56:24.781Z,6.25
2023-04-22T12:57:27.147Z,6.50
2023-04-22T12:58:28.596Z,6.75
2023-04-22T12:59:30.998Z,8.25
2023-04-22T13:00:32.492Z,7.00
2023-04-22T13:01:36.035Z,7.00
2023-04-22T13:02:37.550Z,6.00
2023-04-22T13:03:40.264Z,8.25
2023-04-22T13:04:41.944Z,7.25
2023-04-22T13:05:44.868Z,7.75
2023-04-22T13:06:46.512Z,7.50
2023-04-22T13:07:59.623Z,8.00
2023-04-22T13:09:08.903Z,8.00
2023-04-22T13:10:12.431Z,7.75
2023-04-22T13:11:13.997Z,8.75
2023-04-22T13:12:16.436Z,7.75
2023-04-22T13:13:19.362Z,7.00
2023-04-22T13:14:22.170Z,6.25
2023-04-22T13:15:23.920Z,6.50
2023-04-22T13:16:26.310Z,6.75
2023-04-22T13:17:29.076Z,8.00
2023-04-22T13:18:31.562Z,8.75
2023-04-22T13:19:35.131Z,8.75
2023-04-22T13:20:37.739Z,8.50
2023-04-22T13:21:39.140Z,7.50
2023-04-22T13:22:41.763Z,7.25
2023-04-22T13:23:44.829Z,7.00
2023-04-22T13:24:47.208Z,7.50
2023-04-22T13:25:48.677Z,9.75
2023-04-22T13:26:51.097Z,7.00
2023-04-22T13:27:53.562Z,7.00
2023-04-22T13:28:54.948Z,7.50
2023-04-22T13:29:57.820Z,9.00
2023-04-22T13:30:59.208Z,8.00
2023-04-22T13:32:01.594Z,8.00
2023-04-22T13:33:03.363Z,11.75
2023-04-22T13:34:05.877Z,9.25
2023-04-22T13:35:09.146Z,8.75
2023-04-22T13:36:11.708Z,8.00
2023-04-22T13:37:14.919Z,8.00
2023-04-22T13:38:17.395Z,8.00
2023-04-22T13:39:21.140Z,8.25
2023-04-22T13:40:22.673Z,9.75
2023-04-22T13:41:25.217Z,8.25
2023-04-22T13:42:26.931Z,8.00